Latest Weather Observations for Fawkner Beacon

IDV60901

Issued at 8:41 am EST Tuesday 17 September 2019 (issued every 10 minutes, with the page automatically refreshed every 10 minutes)

About weather observations | Map of Melbourne area stations | Latest observations for Melbourne area | Other Formats
Station Details ID: 086376 Name: FAWKNER BEACON Lat: -37.95 Lon: 144.93 Height: 17.0 m
Data from the previous 72 hours. | See also: Recent months at Fawkner Beacon
Date/Time
EST
Temp
°C
App
Temp
°C
Dew
Point
°C
Rel
Hum
%
Delta-T
°C
Wind Press
QNH
hPa
Press
MSL
hPa
Rain since
9am
mm
Dir  Spd
km/h
Gust
km/h
Spd
kts
Gust
kts
17/08:30am - - - - - ESE 11 15 6 8 - - -
17/08:00am - - - - - ESE 13 15 7 8 - - -
17/07:30am - - - - - ESE 11 15 6 8 - - -
17/07:00am - - - - - E 11 13 6 7 - - -
17/06:30am - - - - - ENE 13 17 7 9 - - -
17/06:00am - - - - - SE 15 17 8 9 - - -
17/05:30am - - - - - E 13 17 7 9 - - -
17/05:00am - - - - - E 15 22 8 12 - - -
17/04:30am - - - - - ESE 24 33 13 18 - - -
17/04:00am - - - - - SE 28 33 15 18 - - -
17/03:30am - - - - - SE 32 35 17 19 - - -
17/03:00am - - - - - SE 32 39 17 21 - - -
17/02:30am - - - - - SE 30 35 16 19 - - -
17/02:00am - - - - - SSE 28 35 15 19 - - -
17/01:30am - - - - - SSE 33 43 18 23 - - -
17/01:00am - - - - - SE 24 30 13 16 - - -
17/12:30am - - - - - SE 28 30 15 16 - - -
17/12:00am - - - - - SSE 33 41 18 22 - - -
 
Date/Time
EST
Temp
°C
App
Temp
°C
Dew
Point
°C
Rel
Hum
%
Delta-T
°C
Wind Press
QNH
hPa
Press
MSL
hPa
Rain since
9am
mm
Dir  Spd
km/h
Gust
km/h
Spd
kts
Gust
kts
16/11:30pm - - - - - SSE 33 41 18 22 - - -
16/11:00pm - - - - - SSE 33 41 18 22 - - -
16/10:30pm - - - - - SSE 33 41 18 22 - - -
16/10:00pm - - - - - SSE 30 39 16 21 - - -
16/09:30pm - - - - - S 28 33 15 18 - - -
16/09:00pm - - - - - S 32 39 17 21 - - -
16/08:46pm - - - - - S 39 46 21 25 - - -
16/08:30pm - - - - - SSE 30 43 16 23 - - -
16/08:00pm - - - - - S 30 35 16 19 - - -
16/07:30pm - - - - - SSE 28 32 15 17 - - -
16/07:00pm - - - - - SSE 32 39 17 21 - - -
16/06:30pm - - - - - SSE 37 44 20 24 - - -
16/06:00pm - - - - - S 33 41 18 22 - - -
16/05:30pm - - - - - S 35 43 19 23 - - -
16/05:00pm - - - - - S 33 43 18 23 - - -
16/04:30pm - - - - - S 35 41 19 22 - - -
16/04:00pm - - - - - S 35 43 19 23 - - -
16/03:30pm - - - - - S 39 44 21 24 - - -
16/03:00pm - - - - - S 33 39 18 21 - - -
16/02:30pm - - - - - S 35 41 19 22 - - -
16/02:00pm - - - - - S 35 43 19 23 - - -
16/01:30pm - - - - - S 28 35 15 19 - - -
16/01:00pm - - - - - S 35 41 19 22 - - -
16/12:30pm - - - - - S 35 43 19 23 - - -
16/12:00pm - - - - - S 43 50 23 27 - - -
16/11:30am - - - - - S 35 43 19 23 - - -
16/11:00am - - - - - SSW 35 41 19 22 - - -
16/10:30am - - - - - SSW 35 43 19 23 - - -
16/10:00am - - - - - SSW 33 41 18 22 - - -
16/09:30am - - - - - SSW 30 35 16 19 - - -
16/09:00am - - - - - SW 24 30 13 16 - - -
16/08:30am - - - - - SW 24 32 13 17 - - -
16/08:00am - - - - - SW 22 28 12 15 - - -
16/07:30am - - - - - SW 24 28 13 15 - - -
16/07:00am - - - - - SSW 24 28 13 15 - - -
16/06:39am - - - - - SSW 26 44 14 24 - - -
16/06:30am - - - - - SW 20 24 11 13 - - -
16/06:00am - - - - - SSW 20 35 11 19 - - -
16/05:30am - - - - - WSW 28 30 15 16 - - -
16/05:00am - - - - - WSW 24 30 13 16 - - -
16/04:30am - - - - - WSW 20 24 11 13 - - -
16/04:00am - - - - - WSW 24 28 13 15 - - -
16/03:30am - - - - - W 24 28 13 15 - - -
16/03:00am - - - - - W 24 30 13 16 - - -
16/02:30am - - - - - W 26 30 14 16 - - -
16/02:00am - - - - - W 30 33 16 18 - - -
16/01:30am - - - - - W 32 41 17 22 - - -
16/01:00am - - - - - WSW 33 43 18 23 - - -
16/12:30am - - - - - SSW 32 39 17 21 - - -
16/12:00am - - - - - S 26 32 14 17 - - -
 
Date/Time
EST
Temp
°C
App
Temp
°C
Dew
Point
°C
Rel
Hum
%
Delta-T
°C
Wind Press
QNH
hPa
Press
MSL
hPa
Rain since
9am
mm
Dir  Spd
km/h
Gust
km/h
Spd
kts
Gust
kts
15/11:30pm - - - - - SW 26 39 14 21 - - -
15/11:00pm - - - - - NW 22 26 12 14 - - -
15/10:30pm - - - - - NW 26 32 14 17 - - -
15/10:00pm - - - - - WNW 30 41 16 22 - - -
15/09:30pm - - - - - NNW 22 28 12 15 - - -
15/09:00pm - - - - - N 33 39 18 21 - - -
15/08:30pm - - - - - N 35 41 19 22 - - -
15/08:00pm - - - - - N 30 33 16 18 - - -
15/07:30pm - - - - - NNW 26 32 14 17 - - -
15/07:00pm - - - - - W 20 32 11 17 - - -
15/06:30pm - - - - - WNW 17 28 9 15 - - -
15/06:00pm - - - - - N 20 24 11 13 - - -
15/05:30pm - - - - - N 24 26 13 14 - - -
15/05:00pm - - - - - NNW 24 30 13 16 - - -
15/04:30pm - - - - - NW 28 50 15 27 - - -
15/04:00pm - - - - - NW 30 32 16 17 - - -
15/03:51pm - - - - - NW 33 39 18 21 - - -
15/03:30pm - - - - - NNW 41 44 22 24 - - -
15/03:00pm - - - - - NNW 28 33 15 18 - - -
15/02:30pm - - - - - N 30 35 16 19 - - -
15/02:00pm - - - - - N 30 35 16 19 - - -
15/01:30pm - - - - - N 20 28 11 15 - - -
15/01:00pm - - - - - N 28 32 15 17 - - -
15/12:30pm - - - - - N 19 24 10 13 - - -
15/12:00pm - - - - - N 30 35 16 19 - - -
15/11:30am - - - - - N 39 46 21 25 - - -
15/11:00am - - - - - N 44 50 24 27 - - -
15/10:30am - - - - - N 44 54 24 29 - - -
15/10:00am - - - - - N 41 50 22 27 - - -
15/09:30am - - - - - N 46 54 25 29 - - -
15/09:00am - - - - - N 41 48 22 26 - - -
15/08:30am - - - - - N 39 46 21 25 - - -
15/08:00am - - - - - N 43 52 23 28 - - -
15/07:30am - - - - - N 30 35 16 19 - - -
15/07:00am - - - - - N 28 33 15 18 - - -
15/06:30am - - - - - N 28 35 15 19 - - -
15/06:00am - - - - - N 39 46 21 25 - - -
15/05:30am - - - - - N 46 52 25 28 - - -
15/05:00am - - - - - N 44 50 24 27 - - -
15/04:30am - - - - - N 39 46 21 25 - - -
15/04:00am - - - - - N 33 39 18 21 - - -
15/03:30am - - - - - N 32 35 17 19 - - -
15/03:00am - - - - - NNE 30 33 16 18 - - -
15/02:30am - - - - - NNE 30 35 16 19 - - -
15/02:00am - - - - - N 32 39 17 21 - - -
15/01:30am - - - - - N 32 35 17 19 - - -
15/01:00am - - - - - N 28 32 15 17 - - -
15/12:30am - - - - - NNE 28 33 15 18 - - -
15/12:00am - - - - - NNE 28 30 15 16 - - -
 
Date/Time
EST
Temp
°C
App
Temp
°C
Dew
Point
°C
Rel
Hum
%
Delta-T
°C
Wind Press
QNH
hPa
Press
MSL
hPa
Rain since
9am
mm
Dir  Spd
km/h
Gust
km/h
Spd
kts
Gust
kts
14/11:30pm - - - - - NNE 20 24 11 13 - - -
14/11:00pm - - - - - N 20 22 11 12 - - -
14/10:30pm - - - - - N 24 26 13 14 - - -
14/10:00pm - - - - - N 24 28 13 15 - - -
14/09:30pm - - - - - N 28 32 15 17 - - -
14/09:00pm - - - - - N 28 33 15 18 - - -
14/08:30pm - - - - - NNW 26 28 14 15 - - -
14/08:00pm - - - - - NNW 28 32 15 17 - - -
14/07:30pm - - - - - N 20 28 11 15 - - -
14/07:00pm - - - - - N 11 13 6 7 - - -
14/06:30pm - - - - - N 4 9 2 5 - - -
14/06:00pm - - - - - N 6 9 3 5 - - -
14/05:30pm - - - - - ENE 6 7 3 4 - - -
14/05:00pm - - - - - ENE 9 11 5 6 - - -
14/04:30pm - - - - - ESE 11 13 6 7 - - -
14/04:00pm - - - - - SE 9 11 5 6 - - -
14/03:30pm - - - - - SE 11 11 6 6 - - -
14/03:00pm - - - - - SSE 9 11 5 6 - - -
14/02:30pm - - - - - S 9 11 5 6 - - -
14/02:00pm - - - - - SSW 9 11 5 6 - - -
14/01:30pm - - - - - S 7 9 4 5 - - -
14/01:00pm - - - - - S 7 9 4 5 - - -
14/12:30pm - - - - - S 7 9 4 5 - - -
14/12:00pm - - - - - SSW 11 13 6 7 - - -
14/11:30am - - - - - SSW 11 13 6 7 - - -
14/11:00am - - - - - SW 7 9 4 5 - - -
14/10:30am - - - - - WSW 6 7 3 4 - - -
14/10:00am - - - - - WSW 7 11 4 6 - - -
14/09:30am - - - - - WSW 15 20 8 11 - - -
14/09:00am - - - - - WSW 22 26 12 14 - - -

Latest Capital City Observations: Canberra | Sydney | Melbourne | Brisbane | Adelaide | Perth | Hobart | Darwin

Other formats

Comma delimited format used in spreadsheet applications
http://www.bom.gov.au/fwo/IDV60901/IDV60901.95872.axf

JavaScript Object Notation format (JSON) in row-major order
http://www.bom.gov.au/fwo/IDV60901/IDV60901.95872.json

Data quality

Most of these data are generated automatically and are frequently updated. Quality checks on data are not normally performed. It is possible for incorrect values to appear. Refer to information at About Latest Weather Observations and please check the disclaimer before using these data.